PWSweather.com
Personal Weather Stations
Station Observations
METEOC500
Santo Antonio, FunchalPT 2020

Santo AntonioFunchalPT 2020

Lat: 32.678227, Lon: -16.945054

Elevation: 1669.94751

Station Type: WH Series

High Low Average
Temperature 71.6°F22.0°C 60.6°F15.9°C 64.8°F18.2°C
Dew Point 61.5°F16.4°C 54.3°F12.4°C 57.6°F14.2°C
Winds 9.6 mph 15.4 kmh Calm Calm 4.0 mph WSW6.4 kmh WSW
Wind Gusts 15.0 mph24.1 kmh -- 9.0 mph14.5 kmh
Humidity 84% 63% 78%
Pressure 30.27 in1025.1 mb 30.14 in1020.7 mb -
Precipitation 0.00 in0.0 mm - -
Hour Temp Dew Point Humidity Winds Wind Gusts Pressure Precip Precip Rate Daily Precip Total
12:14 AM 61.7°F16.5°C 55.0°F12.8°C 79% 4.7 mph NNW7.6 kmh NNW 10.1 mph16.3 kmh 30.18 in1022.0 mb 0.00 in0.0 mm 0.00 in0.0 mm 0.00 in0.0 mm
12:29 AM 61.9°F16.6°C 55.2°F12.9°C 79% 5.6 mph NNW9.0 kmh NNW 10.1 mph16.3 kmh 30.18 in1022.0 mb 0.00 in0.0 mm 0.00 in0.0 mm 0.00 in0.0 mm
12:44 AM 62.1°F16.7°C 55.8°F13.2°C 80% 5.6 mph NNW9.0 kmh NNW 10.1 mph16.3 kmh 30.19 in1022.4 mb 0.00 in0.0 mm 0.00 in0.0 mm 0.00 in0.0 mm
01:00 AM 62.2°F16.8°C 55.9°F13.3°C 80% 4.0 mph NNW6.4 kmh NNW 7.6 mph12.2 kmh 30.19 in1022.4 mb 0.00 in0.0 mm 0.00 in0.0 mm 0.00 in0.0 mm
01:15 AM 62.2°F16.8°C 55.2°F12.9°C 78% 4.9 mph N7.9 kmh N 10.1 mph16.3 kmh 30.19 in1022.4 mb 0.00 in0.0 mm 0.00 in0.0 mm 0.00 in0.0 mm
01:30 AM 62.1°F16.7°C 55.8°F13.2°C 80% 3.8 mph NNW6.1 kmh NNW 7.6 mph12.2 kmh 30.19 in1022.4 mb 0.00 in0.0 mm 0.00 in0.0 mm 0.00 in0.0 mm
01:45 AM 61.7°F16.5°C 55.8°F13.2°C 81% 7.6 mph NNW12.2 kmh NNW 10.1 mph16.3 kmh 30.18 in1022.0 mb 0.00 in0.0 mm 0.00 in0.0 mm 0.00 in0.0 mm
02:00 AM 61.9°F16.6°C 55.6°F13.1°C 80% 6.3 mph NNW10.1 kmh NNW 10.1 mph16.3 kmh 30.19 in1022.4 mb 0.00 in0.0 mm 0.00 in0.0 mm 0.00 in0.0 mm
02:15 AM 62.1°F16.7°C 55.4°F13.0°C 79% 4.9 mph NW7.9 kmh NW 10.1 mph16.3 kmh 30.18 in1022.0 mb 0.00 in0.0 mm 0.00 in0.0 mm 0.00 in0.0 mm
02:31 AM 62.2°F16.8°C 55.6°F13.1°C 79% 6.5 mph NNW10.5 kmh NNW 12.5 mph20.1 kmh 30.17 in1021.7 mb 0.00 in0.0 mm 0.00 in0.0 mm 0.00 in0.0 mm
02:46 AM 62.6°F17.0°C 56.3°F13.5°C 80% 6.0 mph N9.7 kmh N 10.1 mph16.3 kmh 30.17 in1021.7 mb 0.00 in0.0 mm 0.00 in0.0 mm 0.00 in0.0 mm
03:02 AM 62.4°F16.9°C 55.8°F13.2°C 79% 6.5 mph NW10.5 kmh NW 10.1 mph16.3 kmh 30.16 in1021.3 mb 0.00 in0.0 mm 0.00 in0.0 mm 0.00 in0.0 mm
03:17 AM 62.1°F16.7°C 55.4°F13.0°C 79% 6.3 mph NNW10.1 kmh NNW 10.1 mph16.3 kmh 30.16 in1021.3 mb 0.00 in0.0 mm 0.00 in0.0 mm 0.00 in0.0 mm
03:32 AM 61.5°F16.4°C 54.7°F12.6°C 78% 3.8 mph NNW6.1 kmh NNW 7.6 mph12.2 kmh 30.15 in1021.0 mb 0.00 in0.0 mm 0.00 in0.0 mm 0.00 in0.0 mm
03:47 AM 61.9°F16.6°C 55.2°F12.9°C 79% 6.3 mph NNW10.1 kmh NNW 10.1 mph16.3 kmh 30.15 in1021.0 mb 0.00 in0.0 mm 0.00 in0.0 mm 0.00 in0.0 mm
04:02 AM 62.1°F16.7°C 55.0°F12.8°C 78% 6.9 mph NNW11.1 kmh NNW 10.1 mph16.3 kmh 30.14 in1020.7 mb 0.00 in0.0 mm 0.00 in0.0 mm 0.00 in0.0 mm
04:18 AM 61.3°F16.3°C 55.0°F12.8°C 80% 5.4 mph N8.7 kmh N 7.6 mph12.2 kmh 30.14 in1020.7 mb 0.00 in0.0 mm 0.00 in0.0 mm 0.00 in0.0 mm
04:33 AM 60.8°F16.0°C 54.3°F12.4°C 79% 5.4 mph NNW8.7 kmh NNW 10.1 mph16.3 kmh 30.14 in1020.7 mb 0.00 in0.0 mm 0.00 in0.0 mm 0.00 in0.0 mm
04:48 AM 61.0°F16.1°C 54.7°F12.6°C 80% 6.3 mph N10.1 kmh N 10.1 mph16.3 kmh 30.14 in1020.7 mb 0.00 in0.0 mm 0.00 in0.0 mm 0.00 in0.0 mm
05:03 AM 60.8°F16.0°C 54.3°F12.4°C 79% 6.3 mph NNW10.1 kmh NNW 10.1 mph16.3 kmh 30.14 in1020.7 mb 0.00 in0.0 mm 0.00 in0.0 mm 0.00 in0.0 mm
05:18 AM 60.6°F15.9°C 54.5°F12.5°C 80% 6.3 mph NNW10.1 kmh NNW 10.1 mph16.3 kmh 30.14 in1020.7 mb 0.00 in0.0 mm 0.00 in0.0 mm 0.00 in0.0 mm
05:34 AM 60.6°F15.9°C 54.5°F12.5°C 80% 5.4 mph NNW8.7 kmh NNW 10.1 mph16.3 kmh 30.15 in1021.0 mb 0.00 in0.0 mm 0.00 in0.0 mm 0.00 in0.0 mm
05:49 AM 60.6°F15.9°C 54.5°F12.5°C 80% 6.5 mph NNW10.5 kmh NNW 12.5 mph20.1 kmh 30.15 in1021.0 mb 0.00 in0.0 mm 0.00 in0.0 mm 0.00 in0.0 mm
06:04 AM 61.0°F16.1°C 55.8°F13.2°C 83% 5.4 mph N8.7 kmh N 10.1 mph16.3 kmh 30.15 in1021.0 mb 0.00 in0.0 mm 0.00 in0.0 mm 0.00 in0.0 mm
06:19 AM 61.2°F16.2°C 55.6°F13.1°C 82% 8.5 mph NNW13.7 kmh NNW 10.1 mph16.3 kmh 30.15 in1021.0 mb 0.00 in0.0 mm 0.00 in0.0 mm 0.00 in0.0 mm
06:34 AM 61.2°F16.2°C 55.6°F13.1°C 82% 7.6 mph NNW12.2 kmh NNW 10.1 mph16.3 kmh 30.16 in1021.3 mb 0.00 in0.0 mm 0.00 in0.0 mm 0.00 in0.0 mm
06:49 AM 61.2°F16.2°C 55.2°F12.9°C 81% 7.8 mph NW12.6 kmh NW 10.1 mph16.3 kmh 30.16 in1021.3 mb 0.00 in0.0 mm 0.00 in0.0 mm 0.00 in0.0 mm
07:05 AM 61.3°F16.3°C 55.4°F13.0°C 81% 7.2 mph NW11.6 kmh NW 12.5 mph20.1 kmh 30.17 in1021.7 mb 0.00 in0.0 mm 0.00 in0.0 mm 0.00 in0.0 mm
07:20 AM 61.3°F16.3°C 55.0°F12.8°C 80% 9.6 mph NNW15.4 kmh NNW 12.5 mph20.1 kmh 30.17 in1021.7 mb 0.00 in0.0 mm 0.00 in0.0 mm 0.00 in0.0 mm
07:35 AM 61.3°F16.3°C 55.4°F13.0°C 81% 4.9 mph N7.9 kmh N 10.1 mph16.3 kmh 30.18 in1022.0 mb 0.00 in0.0 mm 0.00 in0.0 mm 0.00 in0.0 mm
07:50 AM 61.5°F16.4°C 55.6°F13.1°C 81% 5.4 mph N8.7 kmh N 10.1 mph16.3 kmh 30.18 in1022.0 mb 0.00 in0.0 mm 0.00 in0.0 mm 0.00 in0.0 mm
08:06 AM 61.9°F16.6°C 56.3°F13.5°C 82% 4.0 mph N6.4 kmh N 7.6 mph12.2 kmh 30.18 in1022.0 mb 0.00 in0.0 mm 0.00 in0.0 mm 0.00 in0.0 mm
08:21 AM 61.9°F16.6°C 57.0°F13.9°C 84% 3.1 mph N5.0 kmh N 7.6 mph12.2 kmh 30.19 in1022.4 mb 0.00 in0.0 mm 0.00 in0.0 mm 0.00 in0.0 mm
08:36 AM 62.1°F16.7°C 57.2°F14.0°C 84% 3.8 mph 6.1 kmh 7.6 mph12.2 kmh 30.20 in1022.7 mb 0.00 in0.0 mm 0.00 in0.0 mm 0.00 in0.0 mm
08:51 AM 63.3°F17.4°C 57.7°F14.3°C 82% 2.5 mph N4.0 kmh N 4.9 mph7.9 kmh 30.20 in1022.7 mb 0.00 in0.0 mm 0.00 in0.0 mm 0.00 in0.0 mm
09:06 AM 64.2°F17.9°C 59.4°F15.2°C 84% Calm Calm 4.9 mph7.9 kmh 30.21 in1023.0 mb 0.00 in0.0 mm 0.00 in0.0 mm 0.00 in0.0 mm
09:21 AM 64.4°F18.0°C 58.8°F14.9°C 82% 0.9 mph N1.4 kmh N 2.5 mph4.0 kmh 30.21 in1023.0 mb 0.00 in0.0 mm 0.00 in0.0 mm 0.00 in0.0 mm
09:36 AM 64.8°F18.2°C 59.2°F15.1°C 82% 3.8 mph N6.1 kmh N 4.9 mph7.9 kmh 30.22 in1023.4 mb 0.00 in0.0 mm 0.00 in0.0 mm 0.00 in0.0 mm
09:51 AM 64.8°F18.2°C 58.5°F14.7°C 80% Calm Calm 4.9 mph7.9 kmh 30.22 in1023.4 mb 0.00 in0.0 mm 0.00 in0.0 mm 0.00 in0.0 mm
10:06 AM 67.1°F19.5°C 56.1°F13.4°C 68% 5.4 mph S8.7 kmh S 12.5 mph20.1 kmh 30.23 in1023.7 mb 0.00 in0.0 mm 0.00 in0.0 mm 0.00 in0.0 mm
10:21 AM 69.3°F20.7°C 59.5°F15.3°C 71% 3.1 mph W5.0 kmh W 12.5 mph20.1 kmh 30.24 in1024.0 mb 0.00 in0.0 mm 0.00 in0.0 mm 0.00 in0.0 mm
10:37 AM 68.9°F20.5°C 59.2°F15.1°C 71% 4.5 mph SE7.2 kmh SE 7.6 mph12.2 kmh 30.24 in1024.0 mb 0.00 in0.0 mm 0.00 in0.0 mm 0.00 in0.0 mm
10:52 AM 68.9°F20.5°C 57.6°F14.2°C 67% 4.5 mph S7.2 kmh S 10.1 mph16.3 kmh 30.23 in1023.7 mb 0.00 in0.0 mm 0.00 in0.0 mm 0.00 in0.0 mm
11:07 AM 70.7°F21.5°C 58.3°F14.6°C 65% 7.6 mph S12.2 kmh S 10.1 mph16.3 kmh 30.24 in1024.0 mb 0.00 in0.0 mm 0.00 in0.0 mm 0.00 in0.0 mm
11:22 AM 71.6°F22.0°C 58.3°F14.6°C 63% 6.3 mph S10.1 kmh S 12.5 mph20.1 kmh 30.24 in1024.0 mb 0.00 in0.0 mm 0.00 in0.0 mm 0.00 in0.0 mm
11:37 AM 71.4°F21.9°C 59.5°F15.3°C 66% 4.0 mph S6.4 kmh S 10.1 mph16.3 kmh 30.24 in1024.0 mb 0.00 in0.0 mm 0.00 in0.0 mm 0.00 in0.0 mm
11:52 AM 70.7°F21.5°C 59.2°F15.1°C 67% 0.2 mph S0.3 kmh S 10.1 mph16.3 kmh 30.24 in1024.0 mb 0.00 in0.0 mm 0.00 in0.0 mm 0.00 in0.0 mm
12:07 PM 69.8°F21.0°C 59.2°F15.1°C 69% 9.2 mph SE14.8 kmh SE 12.5 mph20.1 kmh 30.23 in1023.7 mb 0.00 in0.0 mm 0.00 in0.0 mm 0.00 in0.0 mm
12:23 PM 69.1°F20.6°C 58.8°F14.9°C 70% Calm Calm 10.1 mph16.3 kmh 30.23 in1023.7 mb 0.00 in0.0 mm 0.00 in0.0 mm 0.00 in0.0 mm
12:38 PM 69.8°F21.0°C 57.9°F14.4°C 66% 4.0 mph SSE6.4 kmh SSE 15.0 mph24.1 kmh 30.22 in1023.4 mb 0.00 in0.0 mm 0.00 in0.0 mm 0.00 in0.0 mm
12:53 PM 71.1°F21.7°C 61.5°F16.4°C 72% 4.0 mph SSE6.4 kmh SSE 12.5 mph20.1 kmh 30.23 in1023.7 mb 0.00 in0.0 mm 0.00 in0.0 mm 0.00 in0.0 mm
01:08 PM 70.2°F21.2°C 61.5°F16.4°C 74% 6.3 mph SSW10.1 kmh SSW 12.5 mph20.1 kmh 30.22 in1023.4 mb 0.00 in0.0 mm 0.00 in0.0 mm 0.00 in0.0 mm
01:23 PM 68.7°F20.4°C 60.1°F15.6°C 74% 3.1 mph SSE5.0 kmh SSE 12.5 mph20.1 kmh 30.22 in1023.4 mb 0.00 in0.0 mm 0.00 in0.0 mm 0.00 in0.0 mm
01:38 PM 68.2°F20.1°C 60.3°F15.7°C 76% 4.7 mph SE7.6 kmh SE 10.1 mph16.3 kmh 30.22 in1023.4 mb 0.00 in0.0 mm 0.00 in0.0 mm 0.00 in0.0 mm
01:53 PM 67.8°F19.9°C 59.9°F15.5°C 76% 1.3 mph S2.1 kmh S 10.1 mph16.3 kmh 30.22 in1023.4 mb 0.00 in0.0 mm 0.00 in0.0 mm 0.00 in0.0 mm
02:08 PM 67.6°F19.8°C 60.3°F15.7°C 77% 3.1 mph SE5.0 kmh SE 7.6 mph12.2 kmh 30.22 in1023.4 mb 0.00 in0.0 mm 0.00 in0.0 mm 0.00 in0.0 mm
02:23 PM 67.3°F19.6°C 59.9°F15.5°C 77% 3.4 mph SSE5.5 kmh SSE 10.1 mph16.3 kmh 30.22 in1023.4 mb 0.00 in0.0 mm 0.00 in0.0 mm 0.00 in0.0 mm
02:39 PM 66.9°F19.4°C 59.2°F15.1°C 76% 6.5 mph SE10.5 kmh SE 10.1 mph16.3 kmh 30.22 in1023.4 mb 0.00 in0.0 mm 0.00 in0.0 mm 0.00 in0.0 mm
02:54 PM 66.9°F19.4°C 59.2°F15.1°C 76% 3.1 mph SSE5.0 kmh SSE 10.1 mph16.3 kmh 30.21 in1023.0 mb 0.00 in0.0 mm 0.00 in0.0 mm 0.00 in0.0 mm
03:09 PM 67.1°F19.5°C 58.8°F14.9°C 75% 1.3 mph SSE2.1 kmh SSE 10.1 mph16.3 kmh 30.20 in1022.7 mb 0.00 in0.0 mm 0.00 in0.0 mm 0.00 in0.0 mm
03:24 PM 67.3°F19.6°C 58.6°F14.8°C 74% 3.4 mph SSE5.5 kmh SSE 10.1 mph16.3 kmh 30.20 in1022.7 mb 0.00 in0.0 mm 0.00 in0.0 mm 0.00 in0.0 mm
03:39 PM 67.3°F19.6°C 58.3°F14.6°C 73% 0.9 mph SW1.4 kmh SW 10.1 mph16.3 kmh 30.20 in1022.7 mb 0.00 in0.0 mm 0.00 in0.0 mm 0.00 in0.0 mm
03:55 PM 67.6°F19.8°C 59.0°F15.0°C 74% 6.9 mph SSE11.1 kmh SSE 10.1 mph16.3 kmh 30.20 in1022.7 mb 0.00 in0.0 mm 0.00 in0.0 mm 0.00 in0.0 mm
04:10 PM 68.0°F20.0°C 59.0°F15.0°C 73% 6.9 mph SE11.1 kmh SE 10.1 mph16.3 kmh 30.20 in1022.7 mb 0.00 in0.0 mm 0.00 in0.0 mm 0.00 in0.0 mm
04:25 PM 68.4°F20.2°C 59.7°F15.4°C 74% 1.3 mph ESE2.1 kmh ESE 10.1 mph16.3 kmh 30.20 in1022.7 mb 0.00 in0.0 mm 0.00 in0.0 mm 0.00 in0.0 mm
04:40 PM 68.5°F20.3°C 59.5°F15.3°C 73% Calm Calm 7.6 mph12.2 kmh 30.20 in1022.7 mb 0.00 in0.0 mm 0.00 in0.0 mm 0.00 in0.0 mm
04:55 PM 68.4°F20.2°C 59.4°F15.2°C 73% 3.4 mph SE5.5 kmh SE 7.6 mph12.2 kmh 30.19 in1022.4 mb 0.00 in0.0 mm 0.00 in0.0 mm 0.00 in0.0 mm
05:10 PM 68.0°F20.0°C 59.0°F15.0°C 73% 3.1 mph S5.0 kmh S 10.1 mph16.3 kmh 30.19 in1022.4 mb 0.00 in0.0 mm 0.00 in0.0 mm 0.00 in0.0 mm
05:25 PM 67.6°F19.8°C 59.0°F15.0°C 74% 2.2 mph SW3.5 kmh SW 7.6 mph12.2 kmh 30.19 in1022.4 mb 0.00 in0.0 mm 0.00 in0.0 mm 0.00 in0.0 mm
05:41 PM 67.5°F19.7°C 58.8°F14.9°C 74% Calm Calm 7.6 mph12.2 kmh 30.20 in1022.7 mb 0.00 in0.0 mm 0.00 in0.0 mm 0.00 in0.0 mm
05:56 PM 67.3°F19.6°C 59.5°F15.3°C 76% 4.5 mph SE7.2 kmh SE 7.6 mph12.2 kmh 30.20 in1022.7 mb 0.00 in0.0 mm 0.00 in0.0 mm 0.00 in0.0 mm
06:11 PM 67.1°F19.5°C 59.4°F15.2°C 76% 2.9 mph SE4.7 kmh SE 7.6 mph12.2 kmh 30.20 in1022.7 mb 0.00 in0.0 mm 0.00 in0.0 mm 0.00 in0.0 mm
06:26 PM 66.7°F19.3°C 59.4°F15.2°C 77% 3.1 mph SE5.0 kmh SE 7.6 mph12.2 kmh 30.20 in1022.7 mb 0.00 in0.0 mm 0.00 in0.0 mm 0.00 in0.0 mm
06:42 PM 66.6°F19.2°C 59.2°F15.1°C 77% Calm Calm 4.9 mph7.9 kmh 30.21 in1023.0 mb 0.00 in0.0 mm 0.00 in0.0 mm 0.00 in0.0 mm
06:57 PM 66.4°F19.1°C 59.4°F15.2°C 78% 2.9 mph SSW4.7 kmh SSW 4.9 mph7.9 kmh 30.22 in1023.4 mb 0.00 in0.0 mm 0.00 in0.0 mm 0.00 in0.0 mm
07:12 PM 66.2°F19.0°C 59.5°F15.3°C 79% Calm Calm 4.9 mph7.9 kmh 30.22 in1023.4 mb 0.00 in0.0 mm 0.00 in0.0 mm 0.00 in0.0 mm
07:27 PM 65.8°F18.8°C 59.2°F15.1°C 79% Calm Calm 4.9 mph7.9 kmh 30.22 in1023.4 mb 0.00 in0.0 mm 0.00 in0.0 mm 0.00 in0.0 mm
07:42 PM 65.7°F18.7°C 59.4°F15.2°C 80% Calm Calm 2.5 mph4.0 kmh 30.23 in1023.7 mb 0.00 in0.0 mm 0.00 in0.0 mm 0.00 in0.0 mm
07:58 PM 65.3°F18.5°C 59.4°F15.2°C 81% Calm Calm 2.5 mph4.0 kmh 30.23 in1023.7 mb 0.00 in0.0 mm 0.00 in0.0 mm 0.00 in0.0 mm
08:13 PM 65.1°F18.4°C 59.2°F15.1°C 81% Calm Calm 2.5 mph4.0 kmh 30.24 in1024.0 mb 0.00 in0.0 mm 0.00 in0.0 mm 0.00 in0.0 mm
08:28 PM 64.9°F18.3°C 59.0°F15.0°C 81% Calm Calm -- 30.24 in1024.0 mb 0.00 in0.0 mm 0.00 in0.0 mm 0.00 in0.0 mm
08:43 PM 64.8°F18.2°C 59.2°F15.1°C 82% Calm Calm 4.9 mph7.9 kmh 30.24 in1024.0 mb 0.00 in0.0 mm 0.00 in0.0 mm 0.00 in0.0 mm
08:58 PM 64.2°F17.9°C 59.0°F15.0°C 83% 3.8 mph N6.1 kmh N 4.9 mph7.9 kmh 30.24 in1024.0 mb 0.00 in0.0 mm 0.00 in0.0 mm 0.00 in0.0 mm
09:14 PM 63.9°F17.7°C 58.6°F14.8°C 83% 4.9 mph NNW7.9 kmh NNW 10.1 mph16.3 kmh 30.26 in1024.7 mb 0.00 in0.0 mm 0.00 in0.0 mm 0.00 in0.0 mm
09:29 PM 63.7°F17.6°C 58.5°F14.7°C 83% 5.4 mph NW8.7 kmh NW 7.6 mph12.2 kmh 30.25 in1024.4 mb 0.00 in0.0 mm 0.00 in0.0 mm 0.00 in0.0 mm
09:44 PM 63.3°F17.4°C 58.1°F14.5°C 83% 5.4 mph NW8.7 kmh NW 10.1 mph16.3 kmh 30.26 in1024.7 mb 0.00 in0.0 mm 0.00 in0.0 mm 0.00 in0.0 mm
09:59 PM 63.0°F17.2°C 57.7°F14.3°C 83% 7.6 mph NNW12.2 kmh NNW 7.6 mph12.2 kmh 30.27 in1025.1 mb 0.00 in0.0 mm 0.00 in0.0 mm 0.00 in0.0 mm
10:14 PM 62.8°F17.1°C 57.9°F14.4°C 84% 4.9 mph NNW7.9 kmh NNW 10.1 mph16.3 kmh 30.27 in1025.1 mb 0.00 in0.0 mm 0.00 in0.0 mm 0.00 in0.0 mm
10:29 PM 62.6°F17.0°C 57.7°F14.3°C 84% 3.8 mph NNW6.1 kmh NNW 10.1 mph16.3 kmh 30.26 in1024.7 mb 0.00 in0.0 mm 0.00 in0.0 mm 0.00 in0.0 mm
10:44 PM 62.2°F16.8°C 57.4°F14.1°C 84% 5.4 mph NW8.7 kmh NW 10.1 mph16.3 kmh 30.27 in1025.1 mb 0.00 in0.0 mm 0.00 in0.0 mm 0.00 in0.0 mm
11:00 PM 62.1°F16.7°C 56.1°F13.4°C 81% 4.0 mph NNW6.4 kmh NNW 10.1 mph16.3 kmh 30.26 in1024.7 mb 0.00 in0.0 mm 0.00 in0.0 mm 0.00 in0.0 mm
11:15 PM 61.9°F16.6°C 56.3°F13.5°C 82% 6.0 mph NW9.7 kmh NW 10.1 mph16.3 kmh 30.26 in1024.7 mb 0.00 in0.0 mm 0.00 in0.0 mm 0.00 in0.0 mm
11:30 PM 61.9°F16.6°C 56.3°F13.5°C 82% 7.8 mph NW12.6 kmh NW 12.5 mph20.1 kmh 30.25 in1024.4 mb 0.00 in0.0 mm 0.00 in0.0 mm 0.00 in0.0 mm
11:45 PM 62.1°F16.7°C 56.8°F13.8°C 83% 7.6 mph NNW12.2 kmh NNW 12.5 mph20.1 kmh 30.26 in1024.7 mb 0.00 in0.0 mm 0.00 in0.0 mm 0.00 in0.0 mm